createdAt,value
2022-11-29T00:04:00.343Z,8.10
2022-11-29T00:09:06.585Z,4.88
2022-11-29T00:14:10.879Z,7.32
2022-11-29T00:19:13.695Z,4.60
2022-11-29T00:24:16.131Z,5.32
2022-11-29T00:29:18.796Z,5.55
2022-11-29T00:34:21.015Z,6.32
2022-11-29T00:39:23.461Z,6.25
2022-11-29T00:44:25.625Z,6.68
2022-11-29T00:49:27.854Z,6.15
2022-11-29T00:54:30.089Z,4.25
2022-11-29T00:59:32.247Z,5.03
2022-11-29T01:04:34.733Z,5.55
2022-11-29T01:09:36.982Z,6.25
2022-11-29T01:14:40.603Z,4.85
2022-11-29T01:19:47.846Z,4.80
2022-11-29T01:24:52.779Z,5.45
2022-11-29T01:29:55.153Z,4.28
2022-11-29T01:34:57.417Z,5.05
2022-11-29T01:39:59.734Z,5.63
2022-11-29T01:45:03.852Z,8.23
2022-11-29T01:50:07.861Z,6.10
2022-11-29T01:55:10.320Z,4.05
2022-11-29T02:00:16.157Z,4.93
2022-11-29T02:05:20.494Z,6.43
2022-11-29T02:10:32.795Z,3.70
2022-11-29T02:15:50.842Z,6.85
2022-11-29T02:21:23.772Z,6.38
2022-11-29T02:26:47.903Z,5.47
2022-11-29T02:32:08.853Z,4.00
2022-11-29T02:37:29.244Z,5.18
2022-11-29T02:42:55.667Z,5.03
2022-11-29T02:48:16.353Z,3.60
2022-11-29T02:53:44.328Z,3.67
2022-11-29T02:59:01.381Z,3.28
2022-11-29T03:04:06.825Z,3.65
2022-11-29T03:09:09.219Z,3.58
2022-11-29T03:14:36.132Z,5.35
2022-11-29T03:20:09.176Z,4.82
2022-11-29T03:25:29.251Z,4.68
2022-11-29T03:30:34.601Z,4.20
2022-11-29T03:35:53.362Z,2.83
2022-11-29T03:41:38.962Z,4.20
2022-11-29T03:47:03.573Z,2.88
2022-11-29T03:52:29.161Z,2.88
2022-11-29T03:57:52.658Z,3.37
2022-11-29T04:03:20.178Z,3.25
2022-11-29T04:08:50.136Z,2.47
2022-11-29T04:14:01.234Z,3.78
2022-11-29T04:19:22.046Z,4.90
2022-11-29T04:25:14.727Z,3.50
2022-11-29T04:30:42.507Z,2.08
2022-11-29T04:36:32.405Z,3.55
2022-11-29T04:42:06.605Z,4.43
2022-11-29T04:47:29.872Z,3.05
2022-11-29T04:52:59.865Z,3.38
2022-11-29T04:58:28.096Z,2.15
2022-11-29T05:03:41.706Z,4.10
2022-11-29T05:09:18.495Z,3.33
2022-11-29T05:14:38.002Z,2.72
2022-11-29T05:19:45.887Z,2.03
2022-11-29T05:25:01.956Z,3.88
2022-11-29T05:30:19.375Z,2.50
2022-11-29T05:35:29.461Z,3.50
2022-11-29T05:40:46.838Z,1.88
2022-11-29T05:46:03.113Z,3.63
2022-11-29T05:51:27.516Z,4.45
2022-11-29T05:57:00.855Z,4.88
2022-11-29T06:02:03.172Z,4.72
2022-11-29T06:07:38.900Z,3.50
2022-11-29T06:12:45.544Z,2.47
2022-11-29T06:18:10.148Z,3.53
2022-11-29T06:23:46.431Z,3.65
2022-11-29T06:28:55.026Z,2.45
2022-11-29T06:34:20.489Z,4.47
2022-11-29T06:39:23.286Z,3.08
2022-11-29T06:44:26.051Z,4.75
2022-11-29T06:49:47.986Z,4.18
2022-11-29T06:55:18.632Z,4.57
2022-11-29T07:00:37.829Z,4.35
2022-11-29T07:05:41.125Z,4.20
2022-11-29T07:10:44.966Z,3.60
2022-11-29T07:16:07.640Z,4.63
2022-11-29T07:21:40.001Z,4.53
2022-11-29T07:27:03.705Z,4.75
2022-11-29T07:32:20.924Z,4.10
2022-11-29T07:37:35.442Z,4.60
2022-11-29T07:42:49.294Z,5.25
2022-11-29T07:47:52.199Z,3.83
2022-11-29T07:52:55.829Z,5.18
2022-11-29T07:57:58.133Z,5.07
2022-11-29T08:03:00.419Z,6.22
2022-11-29T08:08:03.270Z,12.73
2022-11-29T08:13:05.457Z,13.68
2022-11-29T08:18:07.777Z,8.57
2022-11-29T08:23:12.930Z,14.93
2022-11-29T08:28:15.272Z,22.87
2022-11-29T08:33:17.463Z,64.15
2022-11-29T08:38:19.626Z,37.95
2022-11-29T08:43:21.790Z,13.43
2022-11-29T08:48:24.501Z,8.38
2022-11-29T08:53:42.035Z,12.48
2022-11-29T08:58:44.909Z,7.22
2022-11-29T09:04:07.211Z,6.07
2022-11-29T09:09:09.427Z,10.02
2022-11-29T09:14:15.913Z,7.88
2022-11-29T09:19:18.246Z,8.15
2022-11-29T09:24:20.808Z,5.47
2022-11-29T09:29:23.169Z,3.78
2022-11-29T09:34:25.514Z,4.10
2022-11-29T09:39:27.750Z,5.07
2022-11-29T09:44:35.455Z,8.15
2022-11-29T09:50:16.065Z,7.80
2022-11-29T09:55:27.328Z,11.10
2022-11-29T10:00:32.678Z,6.53
2022-11-29T10:05:49.991Z,6.57
2022-11-29T10:10:58.625Z,4.10
2022-11-29T10:16:12.432Z,3.70
2022-11-29T10:21:20.856Z,4.07
2022-11-29T10:26:25.880Z,8.70
2022-11-29T10:31:39.281Z,6.65
2022-11-29T10:36:52.834Z,7.03
2022-11-29T10:42:01.581Z,4.65
2022-11-29T10:47:10.700Z,6.03
2022-11-29T10:52:22.097Z,4.25
2022-11-29T10:57:24.434Z,3.97
2022-11-29T11:02:27.971Z,4.85
2022-11-29T11:07:35.850Z,7.55
2022-11-29T11:12:38.243Z,5.47
2022-11-29T11:17:42.351Z,5.53
2022-11-29T11:22:44.945Z,6.20
2022-11-29T11:27:47.759Z,7.47
2022-11-29T11:33:22.036Z,8.20
2022-11-29T11:38:24.276Z,5.63
2022-11-29T11:43:26.589Z,7.82
2022-11-29T11:48:29.516Z,6.35
2022-11-29T11:53:38.100Z,7.80
2022-11-29T11:58:50.010Z,5.18
2022-11-29T12:03:55.130Z,4.55
2022-11-29T12:09:46.480Z,4.07
2022-11-29T12:15:15.378Z,4.30
2022-11-29T12:20:21.503Z,4.72
2022-11-29T12:25:46.369Z,5.20
2022-11-29T12:31:16.368Z,3.35
2022-11-29T12:36:36.903Z,3.22
2022-11-29T12:42:01.753Z,2.67
2022-11-29T12:52:50.228Z,3.45
2022-11-29T12:58:02.268Z,3.38
2022-11-29T13:03:19.709Z,3.90
2022-11-29T13:08:30.745Z,4.30
2022-11-29T13:13:41.979Z,3.15
2022-11-29T13:18:59.685Z,3.55
2022-11-29T13:24:43.145Z,4.32
2022-11-29T13:29:46.656Z,4.47
2022-11-29T13:34:50.913Z,6.80
2022-11-29T13:40:32.028Z,5.40
2022-11-29T13:45:38.191Z,2.90
2022-11-29T13:50:43.849Z,1.73
2022-11-29T13:55:48.137Z,1.13
2022-11-29T14:00:52.123Z,2.95
2022-11-29T14:06:05.253Z,3.38
2022-11-29T14:11:13.746Z,2.42
2022-11-29T14:16:50.355Z,2.78
2022-11-29T14:27:06.847Z,2.80
2022-11-29T14:32:20.883Z,2.03
2022-11-29T14:37:59.062Z,1.90
2022-11-29T14:43:03.680Z,1.05
2022-11-29T14:48:21.742Z,2.35
2022-11-29T14:53:33.141Z,2.55
2022-11-29T14:58:35.292Z,1.95
2022-11-29T15:03:48.638Z,2.13
2022-11-29T15:09:18.734Z,3.78
2022-11-29T15:14:46.981Z,3.85
2022-11-29T15:20:05.761Z,2.80
2022-11-29T15:25:18.345Z,2.60
2022-11-29T15:30:30.081Z,2.45
2022-11-29T15:35:36.363Z,2.13
2022-11-29T15:40:51.260Z,4.97
2022-11-29T15:45:55.741Z,7.28
2022-11-29T15:51:23.712Z,7.60
2022-11-29T15:56:43.948Z,4.65
2022-11-29T16:01:50.273Z,4.80
2022-11-29T16:06:54.883Z,5.05
2022-11-29T16:11:58.647Z,5.97
2022-11-29T16:17:03.386Z,6.00
2022-11-29T16:22:16.275Z,6.20
2022-11-29T16:27:21.592Z,7.78
2022-11-29T16:32:42.472Z,14.15
2022-11-29T16:37:46.811Z,33.95
2022-11-29T16:43:07.870Z,24.27
2022-11-29T16:48:27.714Z,18.58
2022-11-29T16:53:35.197Z,12.18
2022-11-29T16:59:16.631Z,9.82
2022-11-29T17:04:01.125Z,13.55
2022-11-29T17:09:04.360Z,11.13
2022-11-29T17:14:06.540Z,13.48
2022-11-29T17:19:11.915Z,10.43
2022-11-29T17:24:16.002Z,12.48
2022-11-29T17:29:18.353Z,12.30
2022-11-29T17:34:20.619Z,12.45
2022-11-29T17:39:23.178Z,11.52
2022-11-29T17:44:25.825Z,12.60
2022-11-29T17:49:28.030Z,13.93
2022-11-29T17:54:33.096Z,13.48
2022-11-29T17:59:35.466Z,15.50
2022-11-29T18:04:41.994Z,15.57
2022-11-29T18:09:45.063Z,13.93
2022-11-29T18:14:47.475Z,12.55
2022-11-29T18:19:49.659Z,11.00
2022-11-29T18:24:57.695Z,12.65
2022-11-29T18:30:12.324Z,13.57
2022-11-29T18:35:14.607Z,13.85
2022-11-29T18:40:17.185Z,13.90
2022-11-29T18:45:19.446Z,14.85
2022-11-29T18:50:21.669Z,16.10
2022-11-29T18:55:24.492Z,20.25
2022-11-29T19:00:26.845Z,16.52
2022-11-29T19:05:29.116Z,13.40
2022-11-29T19:10:31.418Z,13.13
2022-11-29T19:15:33.638Z,11.18
2022-11-29T19:20:35.899Z,10.73
2022-11-29T19:25:38.106Z,13.68
2022-11-29T19:30:40.373Z,15.93
2022-11-29T19:35:42.549Z,14.98
2022-11-29T19:40:44.975Z,11.13
2022-11-29T19:45:47.294Z,9.80
2022-11-29T19:50:49.488Z,8.73
2022-11-29T19:55:51.751Z,9.95
2022-11-29T20:00:54.296Z,9.52
2022-11-29T20:05:56.552Z,10.55
2022-11-29T20:11:12.088Z,10.68
2022-11-29T20:16:17.196Z,12.07
2022-11-29T20:21:31.110Z,11.90
2022-11-29T20:26:36.172Z,11.68
2022-11-29T20:31:44.376Z,10.03
2022-11-29T20:37:24.300Z,10.63
2022-11-29T20:42:29.647Z,10.23
2022-11-29T20:47:47.123Z,12.13
2022-11-29T20:53:07.728Z,8.75
2022-11-29T20:58:09.928Z,10.30
2022-11-29T21:03:19.487Z,11.70
2022-11-29T21:08:24.832Z,7.90
2022-11-29T21:13:27.262Z,7.80
2022-11-29T21:18:31.089Z,7.90
2022-11-29T21:23:49.504Z,9.80
2022-11-29T21:29:15.759Z,8.93
2022-11-29T21:39:20.297Z,10.88
2022-11-29T21:44:22.512Z,12.05
2022-11-29T21:49:25.031Z,13.95
2022-11-29T21:54:28.519Z,13.32
2022-11-29T21:59:30.809Z,14.77
2022-11-29T22:04:33.020Z,12.00
2022-11-29T22:09:35.185Z,9.65
2022-11-29T22:14:37.371Z,10.85
2022-11-29T22:19:39.666Z,10.00
2022-11-29T22:24:41.823Z,7.63
2022-11-29T22:29:44.096Z,8.02
2022-11-29T22:34:46.529Z,8.95
2022-11-29T22:39:49.472Z,10.48
2022-11-29T22:44:51.890Z,9.27
2022-11-29T22:49:54.296Z,8.77
2022-11-29T22:55:01.268Z,9.30
2022-11-29T23:00:07.341Z,10.05
2022-11-29T23:05:09.796Z,8.15
2022-11-29T23:10:11.971Z,6.63
2022-11-29T23:15:14.355Z,9.18
2022-11-29T23:20:16.597Z,5.57
2022-11-29T23:25:18.879Z,8.73
2022-11-29T23:30:21.062Z,4.40
2022-11-29T23:35:23.251Z,4.47
2022-11-29T23:40:25.495Z,7.45
2022-11-29T23:45:27.879Z,6.93
2022-11-29T23:50:30.120Z,11.35
2022-11-29T23:55:32.336Z,5.65
